New Kowloon, China
Current Conditions -  °F | °C
As of 3:00 PM on Saturday 25 Oct 2014 (Local Time) from VHHH Reporting Station
Scattered Clouds Scattered Clouds  
Wind Chill: 82°   Ceiling: Unl
Heat Index: 85°   Visibility: 6mi
Dew Point: 68°   Wind: 10mph
Humidity: 62%   Direction: 120°ESE
Pressure: 29.97"   Gusts: NA
Location:  22.33°N, 114.15°E
Report Text: VHHH 250700Z 12009KT 090V170 9999 FEW022 SCT040 28/20 Q1015 NOSIG
Loading
Personal Weather Stations






























Interactive Weather Map
Tropical Storm Tracking
New forecast layout! Learn more

10-Day Weather Forecast

Advertisements
Track Severe Weather on mobile